• Join FlightAware (Why Join?)
  • Login
  • US Flag 
10:07PM EST


 

Airport Tracker/Info


-or-


 

Live Flight TrackerFlight Track Log ✈ THA772 ✈ 23-Apr-2013 ✈ WMKK / KUL - VTSP / HKT

Flight Track Log - Related Links

Times and Time Zones

All times are in EDT time to prevent confusion due to time zone crossing. See the THA772 flight status page for this flight to view local times or setup timezone preferences in your user account.

Time Position Orientation Groundspeed Altitude Reporting Facility
EDT Latitude Longitude Course Direction KTS MPH feet Rate Location/Type
12:35AM 2.8080 101.6830 328° Northwest 215 247 3,200  Level FlightAware
12:36AM 2.8320 101.6690 330° Northwest 252 290 4,300 3,240 Climbing FlightAware
12:36AM 2.8650 101.6520 333° Northwest 278 320 6,200 3,720 Climbing FlightAware
12:36AM 2.8810 101.6450 336° Northwest 283 326 7,100 3,000 Climbing FlightAware
12:37AM 2.9100 101.6320 336° Northwest 288 331 8,200 2,400 Climbing FlightAware
12:37AM 2.9470 101.6150 335° Northwest 296 341 9,300 1,920 Climbing FlightAware
12:38AM 2.9760 101.6020 336° Northwest 297 342 9,800 660 Climbing FlightAware
12:38AM 3.0420 101.5730 336° Northwest 324 373 10,100 360 Climbing FlightAware
12:39AM 3.0980 101.5440 333° Northwest 330 380 10,400 1,980 Climbing FlightAware
12:40AM 3.1540 101.4840 313° West 343 395 13,100 2,220 Climbing FlightAware
12:41AM 3.2210 101.4320 322° Northwest 348 400 14,100 960 Climbing FlightAware
12:41AM 3.2650 101.3820 311° West 361 415 14,600 1,800 Climbing FlightAware
12:42AM 3.3120 101.3310 313° West 367 422 16,500 2,700 Climbing FlightAware
12:43AM 3.3570 101.2820 313° West 381 438 18,200 2,460 Climbing FlightAware
12:43AM 3.4090 101.2240 312° West 394 453 20,000 2,580 Climbing FlightAware
12:44AM 3.4670 101.1580 311° West 399 459 22,100 2,400 Climbing FlightAware
12:45AM 3.5090 101.1110 312° West 408 470 23,200 1,680 Climbing FlightAware
12:46AM 3.5590 101.0580 313° West 418 481 24,400 1,500 Climbing FlightAware
12:46AM 3.6230 100.9930 315° West 430 495 25,500 1,500 Climbing FlightAware
12:47AM 3.7000 100.9650 340° North 432 497 26,600 1,620 Climbing FlightAware
12:48AM 3.7920 100.9570 355° North 438 504 27,800 1,380 Climbing FlightAware
12:48AM 3.8620 100.9390 346° North 458 527 28,600 960 Climbing FlightAware
12:49AM 3.9430 100.8980 333° Northwest 476 548 29,200 1,320 Climbing FlightAware
12:50AM 4.0530 100.8450 334° Northwest 487 560 30,500 2,100 Climbing FlightAware
12:50AM 4.1370 100.8040 334° Northwest 481 554 32,000 1,920 Climbing FlightAware
12:51AM 4.2240 100.7620 334° Northwest 474 545 33,300 1,320 Climbing FlightAware
12:52AM 4.3060 100.7210 333° Northwest 480 552 33,900 480 Climbing FlightAware
12:53AM 4.3840 100.6830 334° Northwest 478 550 34,000 60 Climbing FlightAware
12:53AM 4.4730 100.6390 334° Northwest 474 545 34,000  Level FlightAware
12:54AM 4.5530 100.6000 334° Northwest 471 542 34,000  Level FlightAware
12:55AM 4.6430 100.5560 334° Northwest 474 545 34,000  Level FlightAware
12:55AM 4.7220 100.5170 334° Northwest 474 545 34,000  Level FlightAware
12:56AM 4.8090 100.4740 334° Northwest 474 545 34,000  Level FlightAware
12:57AM 4.8900 100.4340 334° Northwest 472 543 34,000  Level FlightAware
12:57AM 4.9670 100.3970 334° Northwest 472 543 34,000  Level FlightAware
12:58AM 5.0440 100.3580 333° Northwest 471 542 34,000  Level FlightAware
12:59AM 5.1340 100.3140 334° Northwest 472 543 34,000  Level FlightAware
01:00AM 5.2250 100.2700 334° Northwest 474 545 34,000  Level FlightAware
01:00AM 5.3030 100.2310 334° Northwest 474 545 34,000  Level FlightAware
01:01AM 5.3810 100.1920 334° Northwest 475 547 34,000  Level FlightAware
01:02AM 5.4700 100.1490 334° Northwest 474 545 34,000  Level FlightAware
01:02AM 5.5400 100.1140 334° Northwest 474 545 34,000  Level FlightAware
01:03AM 5.6400 100.0650 334° Northwest 474 545 34,000  Level FlightAware
01:04AM 5.7010 100.0350 334° Northwest 472 543 34,000  Level FlightAware
01:04AM 5.7950 99.9890 334° Northwest 470 541 34,000  Level FlightAware
01:05AM 5.8840 99.9450 334° Northwest 470 541 34,000  Level FlightAware
01:06AM 5.9630 99.9060 334° Northwest 471 542 34,000  Level FlightAware
01:07AM 6.0510 99.8620 334° Northwest 472 543 34,000  Level FlightAware
01:07AM 6.1290 99.8230 334° Northwest 471 542 34,000  Level FlightAware
01:08AM 6.2090 99.7840 334° Northwest 471 542 34,000  Level FlightAware
01:09AM 6.2970 99.7410 334° Northwest 472 543 34,000  Level FlightAware
01:09AM 6.3650 99.7070 334° Northwest 472 543 34,000  Level FlightAware
01:10AM 6.4620 99.6560 332° Northwest 471 542 34,000  Level FlightAware
01:11AM 6.5200 99.6050 319° Northwest 491 565 34,000  Level FlightAware
01:11AM 6.5910 99.5290 313° West 498 573 34,000  Level FlightAware
01:12AM 6.6620 99.4540 314° West 495 570 34,000  Level FlightAware
01:13AM 6.7250 99.3880 314° West 494 568 34,000 60 Level FlightAware
01:14AM 6.7970 99.3100 313° West 494 568 34,100  Climbing FlightAware
01:14AM 6.8600 99.2430 313° West 493 567 34,000 -1,740 Descending FlightAware
01:15AM 6.9220 99.1780 314° West 502 578 31,800 -3,840 Descending FlightAware
01:16AM 6.9930 99.1020 313° West 508 585 28,600 -3,600 Descending FlightAware
01:16AM 7.0600 99.0310 314° West 490 564 26,700 -1,800 Descending FlightAware
01:17AM 7.1140 98.9720 313° West 481 554 26,200 -420 Descending FlightAware
01:18AM 7.1660 98.9160 313° West 481 554 26,200  Level FlightAware
01:18AM 7.2180 98.8610 314° West 481 554 26,200 -5,040 Level FlightAware
01:19AM 7.2980 98.7760 313° West 421 484 18,700 -5,340 Descending FlightAware
01:20AM 7.3390 98.7320 313° West 421 484 18,700  Level FlightAware
01:21AM 7.3950 98.6710 313° West 421 484 18,700  Level FlightAware
01:21AM 7.4400 98.6220 313° West 421 484 18,700  Level FlightAware
01:22AM 7.4850 98.5730 313° West 421 484 18,700  Level FlightAware
01:23AM 7.5310 98.5250 314° West 421 484 18,700 -1,500 Level FlightAware
01:25AM 7.7564 98.4445 341° North  Level Estimated
01:26AM 7.8760 98.4017 341° North  Level Estimated
01:27AM 7.9957 98.3589 340° North  Level Estimated
01:28AM 8.1132 98.3169 340° North  Level Estimated
01:29AM 8.1132 98.3169 90° East  Level Estimated
01:30AM 8.1132 98.3169 90° East  Level Estimated
01:31AM 8.1132 98.3169 90° East  Level Estimated
01:32AM 8.1132 98.3169 90° East  Level Estimated
01:33AM 8.1132 98.3169 90° East  Level Estimated
01:34AM 8.1132 98.3169 90° East  Level Estimated
01:34AM 8.1080 98.2630 90° East 142 163 900  Level FlightAware
01:35AM 8.1110 98.2890 83° East 142 163 400 -480 Descending FlightAware
01:35AM 8.1120 98.3040 86° East 142 163 400  Level FlightAware
01:38AM 8.1132 98.3169 85° East  Level Estimated
01:39AM 8.1132 98.3169 90° East  Level Estimated